Norwegian Dream — C6LG5 — position and weather

sailwx.info

Track history (hours):
 
Tides and Currents Weather Stations Pressure Air Temp Water Temp Dewpoint Dewpoint Depression Visibility Wind Speed Wind Dir Waves Ship Positions

Norwegian Dream

Operator: Norwegian Cruise Line

Last reported at 2017-Sep-19 18:00 UTC. Time now 2017-Sep-20 00:35 UTC.
Position N 02°24' E 101°36'.

Type: Ship. MMSI: 308272000.

Wind from 080 at 12 knots

Barometer 1013.0 mb
Air temperature 27.0 ° C
Visibility: greater than 5.4 NM
Dewpoint 27.0 ° C
Water temperature 31.0 ° C

Date/timePositionNaut miles runAvg speedWind from/ knotsBaromVisibWave heightAir tempDewpointWater temp
2017-Sep-19 18:00N 02°24' E 101°36'189 7.9 080 / 121013.0 5.4 27.027.031.0
2017-Sep-18 17:51N 05°11' E 100°06'716.0
2017-Sep-18 17:26N 05°18' E 100°05'816.2
2017-Sep-18 16:57N 05°26' E 100°05'815.0
2017-Sep-18 16:25N 05°33' E 100°08'615.0
2017-Sep-18 15:59N 05°34' E 100°15'11 1.3
2017-Sep-18 07:44N 05°25' E 100°21'0 0.7
2017-Sep-18 07:28N 05°25' E 100°21'2 5.0
2017-Sep-18 07:00N 05°27' E 100°21'713.2
2017-Sep-18 06:30N 05°33' E 100°17'32714.6
2017-Sep-17 08:01N 01°12' E 103°35'118.7
2017-Sep-17 07:59N 01°12' E 103°35'613.0
2017-Sep-17 07:29N 01°14' E 103°41'510.7
2017-Sep-17 07:00N 01°16' E 103°46'3 5.6
2017-Sep-17 06:30N 01°16' E 103°49'0 0.0
2017-Sep-17 03:43N 01°16' E 103°49'0 0.0
2017-Sep-17 02:31N 01°16' E 103°49'0 0.0
2017-Sep-17 02:13N 01°16' E 103°49'0 0.0
2017-Sep-17 01:55N 01°16' E 103°49'0 0.0
2017-Sep-17 01:27N 01°16' E 103°49'1 2.2
2017-Sep-17 01:00N 01°16' E 103°48'4 7.7
2017-Sep-17 00:30N 01°12' E 103°50'510.2
2017-Sep-17 00:00N 01°08' E 103°46'611.1
2017-Sep-16 23:30N 01°04' E 103°42'4 7.7
2017-Sep-16 22:59N 01°03' E 103°38'4 8.2
2017-Sep-16 22:30N 01°05' E 103°35'4 7.7
2017-Sep-16 21:59N 01°07' E 103°31'4 7.9
2017-Sep-16 21:26N 01°09' E 103°28'31 9.1
2017-Sep-16 18:00N 01°24' E 103°00'6 0.2 180 / 121012.0 5.4 28.026.731.0
2017-Sep-15 18:00N 01°24' E 103°06'32 8.8 250 / 121012.0 5.4 28.026.731.0
2017-Sep-15 14:24N 01°11' E 103°35'3 8.8
2017-Sep-15 14:00N 01°11' E 103°38'4 8.1
2017-Sep-15 13:30N 01°09' E 103°42'3 6.2
2017-Sep-15 13:00N 01°09' E 103°45'5 9.4
2017-Sep-15 12:30N 01°12' E 103°49'4 8.4
2017-Sep-15 12:00N 01°16' E 103°48'1 1.7
2017-Sep-15 11:26N 01°16' E 103°49'0 0.0
2017-Sep-15 10:53N 01°16' E 103°49'0 0.0
2017-Sep-15 10:26N 01°16' E 103°49'0 0.0
2017-Sep-15 09:53N 01°16' E 103°49'0 0.0
2017-Sep-15 09:29N 01°16' E 103°49'0 0.0
2017-Sep-15 08:50N 01°16' E 103°49'0 0.0
2017-Sep-15 08:17N 01°16' E 103°49'0 0.0
2017-Sep-15 07:47N 01°16' E 103°49'0 0.0
2017-Sep-15 07:26N 01°16' E 103°49'0 0.0
2017-Sep-15 06:59N 01°16' E 103°49'0 0.0
2017-Sep-15 04:02N 01°16' E 103°49'0 0.0
2017-Sep-15 03:34N 01°16' E 103°49'0 0.7
2017-Sep-15 03:29N 01°16' E 103°49'2 3.3
2017-Sep-15 03:00N 01°15' E 103°48'5 9.2
2017-Sep-15 02:30N 01°11' E 103°49'4 7.9
2017-Sep-15 02:01N 01°08' E 103°46'510.5
2017-Sep-15 01:30N 01°05' E 103°42'4 8.3
2017-Sep-15 00:59N 01°03' E 103°38'5 9.9
2017-Sep-15 00:30N 01°05' E 103°34'53 8.1
2017-Sep-14 18:00N 01°30' E 102°48'6 0.3 180 / 61010.0 5.4 28.026.731.0
2017-Sep-13 21:00N 01°36' E 102°48'5615.2 010 / 121009.0 5.4 28.026.731.0
2017-Sep-13 17:18N 01°11' E 103°38'514.6
2017-Sep-13 16:59N 01°09' E 103°42'712.8
2017-Sep-13 16:27N 01°11' E 103°49'4 9.3
2017-Sep-13 15:59N 01°15' E 103°47'2 0.4
2017-Sep-13 10:11N 01°16' E 103°49'0 0.9
2017-Sep-13 09:59N 01°16' E 103°49'3 5.6
2017-Sep-13 09:31N 01°15' E 103°46'713.0
2017-Sep-13 08:59N 01°12' E 103°40'511.2
2017-Sep-13 08:30N 01°12' E 103°35'17915.5
2017-Sep-12 21:00N 02°42' E 101°00'18516.4 360 / 101011.0 5.4 28.026.731.0
2017-Sep-12 09:43N 05°34' E 099°51'12 0.8
2017-Sep-11 18:00N 05°42' E 100°00'22 8.7 200 / 141012.010.8 29.027.731.0
2017-Sep-11 15:29N 05°31' E 100°19'6 1.3
2017-Sep-11 10:47N 05°25' E 100°21'0 0.0
2017-Sep-11 08:17N 05°25' E 100°21'0 0.0
2017-Sep-11 07:59N 05°25' E 100°21'0 0.2
2017-Sep-11 07:25N 05°25' E 100°21'3 7.1
2017-Sep-11 07:01N 05°28' E 100°21'17413.3
2017-Sep-10 18:00N 02°42' E 101°12'16917.4 200 / 121012.0 5.4 27.027.030.0
2017-Sep-10 08:18N 01°11' E 103°35'513.0
2017-Sep-10 07:56N 01°12' E 103°39'410.0
2017-Sep-10 07:31N 01°15' E 103°43'610.8
2017-Sep-10 06:59N 01°16' E 103°48'1 0.6
2017-Sep-10 05:47N 01°16' E 103°49'0 0.0
2017-Sep-10 05:17N 01°16' E 103°49'0 0.0
2017-Sep-10 02:36N 01°16' E 103°49'0 0.0
2017-Sep-10 02:27N 01°16' E 103°49'0 0.0
2017-Sep-10 01:51N 01°16' E 103°49'0 0.1
2017-Sep-10 01:25N 01°16' E 103°49'1 2.5
2017-Sep-10 01:00N 01°16' E 103°48'4 8.0
2017-Sep-10 00:30N 01°12' E 103°49'4 8.3
2017-Sep-09 23:59N 01°09' E 103°47'510.8
2017-Sep-09 23:30N 01°05' E 103°43'4 7.7
2017-Sep-09 22:59N 01°03' E 103°40'4 7.8
2017-Sep-09 22:28N 01°05' E 103°36'4 8.0
2017-Sep-09 21:59N 01°06' E 103°33'4 7.8
2017-Sep-09 21:30N 01°08' E 103°29'4 7.3
2017-Sep-09 20:59N 01°10' E 103°26'6 7.5
2017-Sep-09 20:12N 01°14' E 103°21'2 7.4
2017-Sep-09 19:57N 01°15' E 103°20'17 8.4
2017-Sep-09 18:00N 01°24' E 103°06'   170 / 41011.0 28.026.731.0
Track history (hours):
 
Tides and Currents Weather Stations Pressure Air Temp Water Temp Dewpoint Dewpoint Depression Visibility Wind Speed Wind Dir Waves Ship Positions

Norwegian Dream

Operator: Norwegian Cruise Line

Last reported at 2017-Sep-19 18:00 UTC. Time now 2017-Sep-20 00:35 UTC.
Position N 02°24' E 101°36'.

Type: Ship. MMSI: 308272000.

Wind from 080 at 12 knots

Barometer 1013.0 mb
Air temperature 27.0 ° C
Visibility: greater than 5.4 NM
Dewpoint 27.0 ° C
Water temperature 31.0 ° C

Date/timePositionNaut miles runAvg speedWind from/ knotsBaromVisibWave heightAir tempDewpointWater temp
2017-Sep-19 18:00N 02°24' E 101°36'189 7.9 080 / 121013.0 5.4 27.027.031.0
2017-Sep-18 17:51N 05°11' E 100°06'716.0
2017-Sep-18 17:26N 05°18' E 100°05'816.2
2017-Sep-18 16:57N 05°26' E 100°05'815.0
2017-Sep-18 16:25N 05°33' E 100°08'615.0
2017-Sep-18 15:59N 05°34' E 100°15'11 1.3
2017-Sep-18 07:44N 05°25' E 100°21'0 0.7
2017-Sep-18 07:28N 05°25' E 100°21'2 5.0
2017-Sep-18 07:00N 05°27' E 100°21'713.2
2017-Sep-18 06:30N 05°33' E 100°17'32714.6
2017-Sep-17 08:01N 01°12' E 103°35'118.7
2017-Sep-17 07:59N 01°12' E 103°35'613.0
2017-Sep-17 07:29N 01°14' E 103°41'510.7
2017-Sep-17 07:00N 01°16' E 103°46'3 5.6
2017-Sep-17 06:30N 01°16' E 103°49'0 0.0
2017-Sep-17 03:43N 01°16' E 103°49'0 0.0
2017-Sep-17 02:31N 01°16' E 103°49'0 0.0
2017-Sep-17 02:13N 01°16' E 103°49'0 0.0
2017-Sep-17 01:55N 01°16' E 103°49'0 0.0
2017-Sep-17 01:27N 01°16' E 103°49'1 2.2
2017-Sep-17 01:00N 01°16' E 103°48'4 7.7
2017-Sep-17 00:30N 01°12' E 103°50'510.2
2017-Sep-17 00:00N 01°08' E 103°46'611.1
2017-Sep-16 23:30N 01°04' E 103°42'4 7.7
2017-Sep-16 22:59N 01°03' E 103°38'4 8.2
2017-Sep-16 22:30N 01°05' E 103°35'4 7.7
2017-Sep-16 21:59N 01°07' E 103°31'4 7.9
2017-Sep-16 21:26N 01°09' E 103°28'31 9.1
2017-Sep-16 18:00N 01°24' E 103°00'6 0.2 180 / 121012.0 5.4 28.026.731.0
2017-Sep-15 18:00N 01°24' E 103°06'32 8.8 250 / 121012.0 5.4 28.026.731.0
2017-Sep-15 14:24N 01°11' E 103°35'3 8.8
2017-Sep-15 14:00N 01°11' E 103°38'4 8.1
2017-Sep-15 13:30N 01°09' E 103°42'3 6.2
2017-Sep-15 13:00N 01°09' E 103°45'5 9.4
2017-Sep-15 12:30N 01°12' E 103°49'4 8.4
2017-Sep-15 12:00N 01°16' E 103°48'1 1.7
2017-Sep-15 11:26N 01°16' E 103°49'0 0.0
2017-Sep-15 10:53N 01°16' E 103°49'0 0.0
2017-Sep-15 10:26N 01°16' E 103°49'0 0.0
2017-Sep-15 09:53N 01°16' E 103°49'0 0.0
2017-Sep-15 09:29N 01°16' E 103°49'0 0.0
2017-Sep-15 08:50N 01°16' E 103°49'0 0.0
2017-Sep-15 08:17N 01°16' E 103°49'0 0.0
2017-Sep-15 07:47N 01°16' E 103°49'0 0.0
2017-Sep-15 07:26N 01°16' E 103°49'0 0.0
2017-Sep-15 06:59N 01°16' E 103°49'0 0.0
2017-Sep-15 04:02N 01°16' E 103°49'0 0.0
2017-Sep-15 03:34N 01°16' E 103°49'0 0.7
2017-Sep-15 03:29N 01°16' E 103°49'2 3.3
2017-Sep-15 03:00N 01°15' E 103°48'5 9.2
2017-Sep-15 02:30N 01°11' E 103°49'4 7.9
2017-Sep-15 02:01N 01°08' E 103°46'510.5
2017-Sep-15 01:30N 01°05' E 103°42'4 8.3
2017-Sep-15 00:59N 01°03' E 103°38'5 9.9
2017-Sep-15 00:30N 01°05' E 103°34'53 8.1
2017-Sep-14 18:00N 01°30' E 102°48'6 0.3 180 / 61010.0 5.4 28.026.731.0
2017-Sep-13 21:00N 01°36' E 102°48'5615.2 010 / 121009.0 5.4 28.026.731.0
2017-Sep-13 17:18N 01°11' E 103°38'514.6
2017-Sep-13 16:59N 01°09' E 103°42'712.8
2017-Sep-13 16:27N 01°11' E 103°49'4 9.3
2017-Sep-13 15:59N 01°15' E 103°47'2 0.4
2017-Sep-13 10:11N 01°16' E 103°49'0 0.9
2017-Sep-13 09:59N 01°16' E 103°49'3 5.6
2017-Sep-13 09:31N 01°15' E 103°46'713.0
2017-Sep-13 08:59N 01°12' E 103°40'511.2
2017-Sep-13 08:30N 01°12' E 103°35'17915.5
2017-Sep-12 21:00N 02°42' E 101°00'18516.4 360 / 101011.0 5.4 28.026.731.0
2017-Sep-12 09:43N 05°34' E 099°51'12 0.8
2017-Sep-11 18:00N 05°42' E 100°00'22 8.7 200 / 141012.010.8 29.027.731.0
2017-Sep-11 15:29N 05°31' E 100°19'6 1.3
2017-Sep-11 10:47N 05°25' E 100°21'0 0.0
2017-Sep-11 08:17N 05°25' E 100°21'0 0.0
2017-Sep-11 07:59N 05°25' E 100°21'0 0.2
2017-Sep-11 07:25N 05°25' E 100°21'3 7.1
2017-Sep-11 07:01N 05°28' E 100°21'17413.3
2017-Sep-10 18:00N 02°42' E 101°12'16917.4 200 / 121012.0 5.4 27.027.030.0
2017-Sep-10 08:18N 01°11' E 103°35'513.0
2017-Sep-10 07:56N 01°12' E 103°39'410.0
2017-Sep-10 07:31N 01°15' E 103°43'610.8
2017-Sep-10 06:59N 01°16' E 103°48'1 0.6
2017-Sep-10 05:47N 01°16' E 103°49'0 0.0
2017-Sep-10 05:17N 01°16' E 103°49'0 0.0
2017-Sep-10 02:36N 01°16' E 103°49'0 0.0
2017-Sep-10 02:27N 01°16' E 103°49'0 0.0
2017-Sep-10 01:51N 01°16' E 103°49'0 0.1
2017-Sep-10 01:25N 01°16' E 103°49'1 2.5
2017-Sep-10 01:00N 01°16' E 103°48'4 8.0
2017-Sep-10 00:30N 01°12' E 103°49'4 8.3
2017-Sep-09 23:59N 01°09' E 103°47'510.8
2017-Sep-09 23:30N 01°05' E 103°43'4 7.7
2017-Sep-09 22:59N 01°03' E 103°40'4 7.8
2017-Sep-09 22:28N 01°05' E 103°36'4 8.0
2017-Sep-09 21:59N 01°06' E 103°33'4 7.8
2017-Sep-09 21:30N 01°08' E 103°29'4 7.3
2017-Sep-09 20:59N 01°10' E 103°26'6 7.5
2017-Sep-09 20:12N 01°14' E 103°21'2 7.4
2017-Sep-09 19:57N 01°15' E 103°20'17 8.4
2017-Sep-09 18:00N 01°24' E 103°06'   170 / 41011.0 28.026.731.0

Dump ship's entire track history